createdAt,value
2022-12-11T00:02:08.198Z,2.38
2022-12-11T00:04:35.429Z,1.92
2022-12-11T00:07:02.357Z,1.80
2022-12-11T00:09:29.353Z,1.80
2022-12-11T00:11:56.373Z,1.80
2022-12-11T00:14:23.044Z,2.53
2022-12-11T00:16:49.812Z,2.42
2022-12-11T00:19:17.200Z,1.53
2022-12-11T00:21:44.529Z,1.77
2022-12-11T00:24:11.505Z,2.40
2022-12-11T00:26:38.845Z,1.80
2022-12-11T00:29:05.910Z,1.70
2022-12-11T00:31:32.587Z,1.90
2022-12-11T00:34:01.345Z,1.70
2022-12-11T00:36:28.318Z,1.77
2022-12-11T00:38:55.307Z,1.83
2022-12-11T00:41:22.231Z,1.75
2022-12-11T00:43:49.060Z,1.90
2022-12-11T00:46:15.948Z,1.80
2022-12-11T00:48:42.956Z,1.80
2022-12-11T00:51:10.926Z,1.83
2022-12-11T00:53:39.044Z,1.60
2022-12-11T00:56:14.573Z,1.83
2022-12-11T00:58:41.381Z,1.70
2022-12-11T01:01:11.498Z,1.65
2022-12-11T01:03:38.482Z,1.50
2022-12-11T01:06:06.879Z,1.40
2022-12-11T01:08:38.487Z,1.30
2022-12-11T01:11:08.876Z,1.50
2022-12-11T01:13:35.629Z,1.40
2022-12-11T01:16:07.956Z,1.90
2022-12-11T01:18:34.985Z,1.65
2022-12-11T01:21:06.973Z,1.67
2022-12-11T01:23:33.882Z,1.50
2022-12-11T01:26:13.025Z,1.98
2022-12-11T01:28:40.431Z,1.85
2022-12-11T01:31:16.971Z,1.90
2022-12-11T01:33:43.698Z,1.80
2022-12-11T01:36:16.708Z,1.70
2022-12-11T01:38:44.131Z,1.67
2022-12-11T01:41:11.388Z,1.90
2022-12-11T01:44:06.162Z,1.52
2022-12-11T01:46:36.270Z,1.60
2022-12-11T01:49:07.389Z,1.83
2022-12-11T01:51:40.504Z,1.63
2022-12-11T01:54:11.353Z,1.85
2022-12-11T01:56:39.900Z,2.15
2022-12-11T01:59:09.452Z,1.77
2022-12-11T02:01:51.057Z,1.90
2022-12-11T02:04:19.929Z,2.20
2022-12-11T02:06:49.118Z,1.98
2022-12-11T02:09:23.159Z,1.83
2022-12-11T02:12:00.446Z,2.17
2022-12-11T02:14:49.787Z,1.90
2022-12-11T02:17:24.013Z,1.67
2022-12-11T02:20:22.149Z,2.10
2022-12-11T02:23:13.314Z,2.63
2022-12-11T02:26:15.206Z,1.80
2022-12-11T02:28:55.897Z,1.50
2022-12-11T02:31:41.106Z,1.80
2022-12-11T02:34:13.780Z,1.85
2022-12-11T02:36:45.344Z,1.90
2022-12-11T02:39:15.046Z,2.00
2022-12-11T02:41:46.969Z,2.15
2022-12-11T02:44:17.553Z,2.10
2022-12-11T02:46:45.166Z,2.08
2022-12-11T02:49:13.642Z,1.92
2022-12-11T02:51:41.717Z,1.80
2022-12-11T02:54:16.433Z,1.58
2022-12-11T02:57:11.406Z,1.90
2022-12-11T02:59:46.433Z,2.00
2022-12-11T03:02:15.251Z,1.90
2022-12-11T03:04:43.032Z,1.63
2022-12-11T03:07:17.997Z,1.92
2022-12-11T03:09:47.228Z,1.88
2022-12-11T03:12:18.937Z,1.98
2022-12-11T03:14:46.328Z,1.60
2022-12-11T03:17:18.136Z,1.70
2022-12-11T03:20:07.375Z,1.80
2022-12-11T03:22:43.615Z,1.98
2022-12-11T03:25:17.992Z,1.70
2022-12-11T03:27:55.539Z,2.03
2022-12-11T03:30:24.273Z,1.57
2022-12-11T03:32:58.801Z,1.70
2022-12-11T03:35:34.943Z,1.70
2022-12-11T03:38:06.393Z,1.80
2022-12-11T03:40:35.614Z,1.80
2022-12-11T03:43:03.060Z,1.87
2022-12-11T03:45:30.550Z,1.67
2022-12-11T03:48:01.684Z,1.77
2022-12-11T03:50:32.254Z,1.67
2022-12-11T03:53:01.897Z,1.88
2022-12-11T03:55:30.921Z,1.80
2022-12-11T03:57:57.806Z,1.80
2022-12-11T04:00:24.543Z,2.00
2022-12-11T04:03:13.615Z,1.70
2022-12-11T04:05:47.080Z,2.08
2022-12-11T04:08:15.139Z,2.13
2022-12-11T04:10:42.285Z,1.83
2022-12-11T04:13:10.547Z,1.92
2022-12-11T04:15:38.524Z,1.80
2022-12-11T04:18:25.426Z,1.70
2022-12-11T04:21:15.310Z,1.60
2022-12-11T04:24:00.638Z,1.70
2022-12-11T04:26:27.362Z,2.20
2022-12-11T04:28:54.044Z,1.73
2022-12-11T04:31:22.438Z,2.00
2022-12-11T04:33:49.326Z,2.20
2022-12-11T04:36:16.393Z,1.80
2022-12-11T04:38:43.025Z,1.80
2022-12-11T04:41:12.794Z,1.60
2022-12-11T04:43:40.165Z,1.50
2022-12-11T04:46:10.315Z,1.63
2022-12-11T04:48:39.506Z,1.60
2022-12-11T04:51:07.282Z,1.58
2022-12-11T04:53:35.228Z,1.90
2022-12-11T04:56:05.154Z,2.00
2022-12-11T04:58:31.873Z,1.60
2022-12-11T05:01:00.042Z,2.60
2022-12-11T05:03:26.890Z,1.83
2022-12-11T05:05:53.871Z,2.00
2022-12-11T05:08:21.974Z,1.92
2022-12-11T05:10:59.577Z,2.07
2022-12-11T05:13:27.548Z,1.67
2022-12-11T05:15:54.270Z,1.85
2022-12-11T05:18:21.788Z,1.77
2022-12-11T05:21:02.926Z,2.00
2022-12-11T05:23:29.990Z,1.73
2022-12-11T05:26:00.796Z,1.90
2022-12-11T05:28:30.967Z,2.05
2022-12-11T05:30:57.932Z,2.13
2022-12-11T05:33:25.415Z,1.90
2022-12-11T05:35:52.453Z,1.90
2022-12-11T05:38:21.520Z,1.30
2022-12-11T05:41:07.928Z,1.85
2022-12-11T05:43:36.570Z,1.80
2022-12-11T05:46:24.589Z,1.70
2022-12-11T05:48:54.073Z,1.73
2022-12-11T05:51:22.457Z,1.50
2022-12-11T05:53:50.552Z,2.08
2022-12-11T05:56:21.203Z,1.58
2022-12-11T05:58:49.458Z,1.98
2022-12-11T06:01:20.012Z,1.87
2022-12-11T06:03:46.888Z,1.80
2022-12-11T06:06:14.496Z,1.52
2022-12-11T06:08:41.606Z,2.00
2022-12-11T06:11:09.025Z,2.72
2022-12-11T06:13:35.778Z,1.90
2022-12-11T06:16:07.430Z,2.05
2022-12-11T06:18:40.751Z,2.00
2022-12-11T06:21:32.093Z,2.45
2022-12-11T06:24:02.798Z,2.78
2022-12-11T06:26:29.982Z,2.13
2022-12-11T06:28:56.643Z,3.00
2022-12-11T06:31:23.420Z,3.15
2022-12-11T06:33:50.321Z,2.53
2022-12-11T06:36:21.720Z,2.50
2022-12-11T06:38:48.566Z,2.70
2022-12-11T06:41:15.466Z,2.10
2022-12-11T06:43:43.047Z,2.15
2022-12-11T06:46:15.930Z,2.00
2022-12-11T06:48:43.845Z,2.80
2022-12-11T06:51:15.790Z,2.87
2022-12-11T06:53:44.161Z,2.30
2022-12-11T06:56:15.719Z,2.35
2022-12-11T06:58:44.265Z,2.72
2022-12-11T07:01:19.920Z,2.97
2022-12-11T07:03:49.352Z,2.60
2022-12-11T07:06:17.189Z,2.80
2022-12-11T07:08:44.554Z,3.25
2022-12-11T07:11:13.967Z,4.90
2022-12-11T07:13:42.213Z,4.35
2022-12-11T07:16:11.215Z,2.40
2022-12-11T07:18:42.801Z,2.80
2022-12-11T07:21:11.710Z,2.70
2022-12-11T07:23:38.639Z,2.83
2022-12-11T07:26:07.792Z,2.08
2022-12-11T07:28:35.256Z,2.73
2022-12-11T07:31:27.339Z,2.22
2022-12-11T07:34:00.177Z,2.90
2022-12-11T07:36:28.321Z,2.70
2022-12-11T07:38:55.231Z,2.85
2022-12-11T07:41:23.159Z,2.53
2022-12-11T07:43:54.044Z,2.20
2022-12-11T07:46:24.065Z,2.60
2022-12-11T07:48:51.475Z,2.97
2022-12-11T07:51:27.749Z,3.17
2022-12-11T07:53:57.449Z,2.50
2022-12-11T07:56:24.593Z,3.13
2022-12-11T07:58:51.343Z,3.97
2022-12-11T08:01:24.461Z,2.97
2022-12-11T08:03:51.581Z,4.95
2022-12-11T08:06:21.442Z,3.43
2022-12-11T08:08:48.210Z,3.67
2022-12-11T08:11:15.752Z,6.40
2022-12-11T08:13:44.347Z,6.05
2022-12-11T08:16:14.067Z,6.47
2022-12-11T08:18:41.945Z,6.27
2022-12-11T08:21:16.790Z,7.53
2022-12-11T08:23:44.114Z,11.18
2022-12-11T08:26:19.561Z,10.35
2022-12-11T08:28:46.338Z,17.63
2022-12-11T08:31:14.873Z,16.70
2022-12-11T08:33:42.223Z,14.95
2022-12-11T08:36:11.724Z,11.38
2022-12-11T08:38:38.784Z,12.20
2022-12-11T08:41:31.774Z,25.65
2022-12-11T08:44:00.504Z,19.10
2022-12-11T08:46:30.620Z,25.40
2022-12-11T08:48:58.334Z,18.30
2022-12-11T08:51:27.298Z,6.13
2022-12-11T08:53:59.191Z,18.90
2022-12-11T08:56:26.806Z,15.17
2022-12-11T08:58:54.072Z,5.13
2022-12-11T09:01:23.672Z,3.30
2022-12-11T09:03:51.675Z,2.80
2022-12-11T09:06:21.999Z,3.63
2022-12-11T09:08:53.112Z,5.03
2022-12-11T09:11:26.113Z,7.65
2022-12-11T09:13:53.451Z,5.65
2022-12-11T09:16:21.882Z,7.25
2022-12-11T09:18:50.564Z,7.78
2022-12-11T09:21:19.839Z,7.23
2022-12-11T09:23:47.188Z,6.75
2022-12-11T09:26:16.274Z,8.27
2022-12-11T09:28:46.623Z,8.25
2022-12-11T09:31:34.184Z,10.82
2022-12-11T09:34:04.875Z,10.57
2022-12-11T09:36:34.650Z,9.85
2022-12-11T09:39:03.731Z,7.88
2022-12-11T09:42:35.466Z,9.63
2022-12-11T09:45:04.355Z,10.23
2022-12-11T09:47:30.988Z,10.97
2022-12-11T09:50:15.721Z,12.23
2022-12-11T09:53:00.597Z,15.23
2022-12-11T09:55:37.959Z,11.05
2022-12-11T09:58:27.800Z,7.72
2022-12-11T10:01:00.812Z,5.50
2022-12-11T10:04:02.434Z,6.43
2022-12-11T10:06:38.398Z,8.90
2022-12-11T10:09:34.675Z,11.23
2022-12-11T10:12:12.582Z,9.93
2022-12-11T10:15:21.414Z,9.83
2022-12-11T10:17:50.421Z,7.75
2022-12-11T10:20:23.875Z,7.13
2022-12-11T10:22:52.329Z,4.05
2022-12-11T10:25:27.367Z,3.25
2022-12-11T10:27:54.419Z,4.63
2022-12-11T10:30:25.200Z,4.25
2022-12-11T10:33:13.733Z,4.90
2022-12-11T10:35:51.638Z,8.95
2022-12-11T10:38:27.478Z,9.85
2022-12-11T10:41:18.025Z,4.90
2022-12-11T10:43:47.773Z,5.50
2022-12-11T10:46:28.886Z,4.88
2022-12-11T10:48:58.092Z,6.70
2022-12-11T10:51:26.652Z,14.15
2022-12-11T10:53:57.262Z,14.73
2022-12-11T10:56:32.739Z,7.97
2022-12-11T10:59:01.290Z,11.93
2022-12-11T11:01:32.582Z,4.43
2022-12-11T11:04:06.980Z,7.72
2022-12-11T11:06:33.970Z,3.20
2022-12-11T11:09:01.679Z,3.03
2022-12-11T11:11:36.772Z,2.78
2022-12-11T11:14:16.553Z,4.50
2022-12-11T11:16:47.143Z,3.85
2022-12-11T11:19:35.061Z,3.53
2022-12-11T11:22:28.150Z,4.22
2022-12-11T11:24:58.319Z,4.03
2022-12-11T11:27:40.101Z,4.22
2022-12-11T11:30:19.470Z,3.95
2022-12-11T11:32:46.449Z,4.60
2022-12-11T11:35:13.472Z,4.20
2022-12-11T11:37:44.499Z,3.60
2022-12-11T11:40:23.558Z,5.03
2022-12-11T11:43:09.069Z,9.15
2022-12-11T11:45:39.591Z,9.67
2022-12-11T11:48:25.609Z,10.68
2022-12-11T11:50:54.024Z,12.45
2022-12-11T11:53:41.548Z,6.65
2022-12-11T11:56:11.063Z,9.48
2022-12-11T11:58:59.580Z,13.20
2022-12-11T12:01:26.895Z,4.75
2022-12-11T12:03:54.298Z,3.63
2022-12-11T12:06:47.462Z,4.35
2022-12-11T12:09:36.266Z,3.80
2022-12-11T12:12:08.695Z,5.97
2022-12-11T12:14:53.716Z,5.53
2022-12-11T12:17:26.070Z,5.88
2022-12-11T12:20:38.869Z,12.55
2022-12-11T12:23:30.726Z,9.18
2022-12-11T12:26:14.865Z,6.70
2022-12-11T12:28:57.185Z,6.85
2022-12-11T12:32:01.174Z,11.73
2022-12-11T12:35:01.594Z,6.65
2022-12-11T12:37:47.285Z,6.30
2022-12-11T12:40:22.963Z,6.50
2022-12-11T12:43:27.548Z,5.25
2022-12-11T12:46:19.053Z,3.10
2022-12-11T12:48:45.834Z,4.10
2022-12-11T12:51:15.116Z,2.53
2022-12-11T12:53:48.301Z,2.87
2022-12-11T12:56:16.066Z,4.82
2022-12-11T12:58:45.621Z,4.55
2022-12-11T13:01:12.225Z,3.28
2022-12-11T13:04:05.761Z,5.60
2022-12-11T13:06:47.154Z,8.63
2022-12-11T13:09:26.271Z,10.50
2022-12-11T13:11:57.756Z,10.70
2022-12-11T13:14:31.808Z,7.82
2022-12-11T13:17:42.801Z,7.78
2022-12-11T13:20:15.087Z,4.17
2022-12-11T13:22:56.438Z,3.28
2022-12-11T13:25:25.350Z,5.80
2022-12-11T13:27:52.445Z,7.32
2022-12-11T13:30:19.238Z,5.30
2022-12-11T13:33:06.102Z,4.80
2022-12-11T13:35:34.502Z,4.78
2022-12-11T13:38:16.857Z,5.68
2022-12-11T13:40:46.605Z,5.03
2022-12-11T13:43:18.395Z,5.60
2022-12-11T13:46:04.118Z,4.70
2022-12-11T13:48:39.227Z,3.40
2022-12-11T13:51:07.073Z,3.80
2022-12-11T13:53:34.049Z,4.68
2022-12-11T13:56:03.744Z,6.03
2022-12-11T13:58:34.778Z,5.17
2022-12-11T14:01:07.849Z,5.93
2022-12-11T14:03:35.460Z,3.85
2022-12-11T14:06:03.661Z,4.82
2022-12-11T14:08:40.195Z,5.50
2022-12-11T14:11:07.605Z,8.93
2022-12-11T14:13:37.624Z,7.72
2022-12-11T14:16:06.222Z,3.88
2022-12-11T14:18:35.378Z,3.60
2022-12-11T14:21:06.186Z,4.50
2022-12-11T14:23:34.898Z,5.10
2022-12-11T14:26:05.010Z,6.50
2022-12-11T14:28:41.172Z,8.82
2022-12-11T14:31:08.114Z,9.35
2022-12-11T14:33:43.792Z,4.95
2022-12-11T14:36:11.348Z,5.00
2022-12-11T14:38:46.199Z,4.70
2022-12-11T14:41:25.073Z,3.80
2022-12-11T14:43:57.131Z,4.05
2022-12-11T14:46:41.530Z,4.15
2022-12-11T14:49:35.402Z,9.53
2022-12-11T14:52:04.024Z,5.82
2022-12-11T14:54:41.276Z,5.90
2022-12-11T14:57:14.249Z,5.20
2022-12-11T14:59:46.265Z,4.78
2022-12-11T15:02:27.178Z,5.67
2022-12-11T15:05:12.455Z,4.63
2022-12-11T15:07:41.960Z,5.88
2022-12-11T15:10:22.732Z,3.67
2022-12-11T15:12:49.652Z,4.25
2022-12-11T15:15:17.840Z,3.83
2022-12-11T15:17:51.156Z,3.75
2022-12-11T15:20:25.946Z,4.32
2022-12-11T15:22:54.071Z,3.08
2022-12-11T15:25:24.068Z,3.60
2022-12-11T15:27:54.228Z,3.77
2022-12-11T15:30:26.523Z,4.95
2022-12-11T15:33:17.519Z,4.35
2022-12-11T15:36:01.747Z,5.82
2022-12-11T15:38:37.420Z,3.25
2022-12-11T15:41:04.546Z,4.47
2022-12-11T15:43:36.151Z,3.40
2022-12-11T15:46:06.542Z,3.70
2022-12-11T15:48:33.598Z,5.13
2022-12-11T15:51:00.275Z,3.88
2022-12-11T15:53:27.142Z,3.33
2022-12-11T15:55:54.062Z,3.33
2022-12-11T15:58:24.217Z,4.68
2022-12-11T16:00:51.092Z,5.88
2022-12-11T16:03:19.541Z,5.18
2022-12-11T16:05:46.733Z,7.20
2022-12-11T16:08:15.841Z,6.70
2022-12-11T16:10:44.318Z,4.53
2022-12-11T16:13:12.126Z,3.60
2022-12-11T16:15:41.622Z,3.72
2022-12-11T16:18:11.963Z,4.40
2022-12-11T16:20:40.094Z,5.65
2022-12-11T16:23:10.105Z,3.50
2022-12-11T16:25:39.084Z,6.70
2022-12-11T16:28:36.686Z,5.43
2022-12-11T16:31:04.309Z,3.43
2022-12-11T16:33:43.302Z,4.53
2022-12-11T16:36:23.032Z,5.70
2022-12-11T16:39:04.555Z,3.97
2022-12-11T16:41:32.588Z,3.95
2022-12-11T16:44:12.984Z,3.70
2022-12-11T16:49:53.569Z,3.30
2022-12-11T16:52:39.819Z,3.20
2022-12-11T16:55:07.569Z,4.05
2022-12-11T16:57:34.728Z,3.00
2022-12-11T17:00:01.486Z,3.20
2022-12-11T17:02:28.244Z,3.63
2022-12-11T17:04:57.705Z,3.67
2022-12-11T17:07:24.819Z,3.70
2022-12-11T17:09:52.003Z,4.40
2022-12-11T17:12:18.783Z,3.95
2022-12-11T17:14:45.595Z,3.85
2022-12-11T17:17:12.214Z,3.45
2022-12-11T17:19:39.010Z,5.72
2022-12-11T17:22:05.658Z,5.77
2022-12-11T17:24:32.552Z,6.00
2022-12-11T17:26:59.782Z,5.60
2022-12-11T17:29:26.778Z,6.63
2022-12-11T17:31:53.493Z,7.40
2022-12-11T17:34:20.210Z,5.27
2022-12-11T17:36:46.868Z,7.95
2022-12-11T17:39:16.267Z,7.72
2022-12-11T17:41:42.958Z,6.72
2022-12-11T17:44:09.925Z,5.07
2022-12-11T17:46:36.748Z,4.93
2022-12-11T17:49:04.678Z,5.22
2022-12-11T17:51:33.037Z,5.78
2022-12-11T17:53:59.733Z,7.72
2022-12-11T17:56:26.873Z,3.38
2022-12-11T17:58:53.707Z,2.53
2022-12-11T18:01:20.821Z,4.18
2022-12-11T18:03:47.749Z,4.30
2022-12-11T18:06:15.692Z,4.45
2022-12-11T18:08:43.005Z,4.72
2022-12-11T18:11:17.301Z,3.43
2022-12-11T18:13:45.041Z,3.65
2022-12-11T18:16:33.030Z,4.63
2022-12-11T18:18:59.756Z,7.15
2022-12-11T18:21:31.751Z,4.57
2022-12-11T18:23:59.639Z,6.90
2022-12-11T18:26:27.636Z,8.93
2022-12-11T18:28:57.101Z,6.20
2022-12-11T18:31:24.341Z,13.10
2022-12-11T18:33:51.982Z,4.38
2022-12-11T18:36:20.129Z,9.07
2022-12-11T18:38:47.949Z,8.45
2022-12-11T18:41:15.914Z,9.50
2022-12-11T18:43:42.754Z,9.90
2022-12-11T18:46:12.738Z,8.90
2022-12-11T18:48:39.925Z,9.27
2022-12-11T18:51:09.185Z,11.23
2022-12-11T18:53:37.070Z,15.02
2022-12-11T18:56:12.418Z,15.55
2022-12-11T18:58:39.836Z,10.55
2022-12-11T19:01:13.830Z,13.97
2022-12-11T19:03:44.257Z,15.90
2022-12-11T19:06:18.857Z,20.60
2022-12-11T19:08:46.726Z,22.08
2022-12-11T19:11:18.523Z,18.63
2022-12-11T19:13:45.749Z,18.83
2022-12-11T19:16:22.159Z,15.02
2022-12-11T19:18:49.574Z,15.52
2022-12-11T19:21:17.354Z,8.57
2022-12-11T19:23:45.201Z,5.68
2022-12-11T19:26:21.433Z,9.80
2022-12-11T19:28:49.745Z,4.55
2022-12-11T19:31:19.837Z,5.60
2022-12-11T19:33:47.105Z,3.50
2022-12-11T19:36:16.773Z,3.92
2022-12-11T19:38:45.255Z,7.53
2022-12-11T19:41:18.360Z,8.20
2022-12-11T19:43:45.401Z,7.68
2022-12-11T19:46:13.302Z,6.10
2022-12-11T19:48:41.770Z,4.00
2022-12-11T19:51:14.279Z,3.00
2022-12-11T19:53:41.938Z,3.10
2022-12-11T19:56:10.224Z,4.13
2022-12-11T19:58:38.025Z,5.57
2022-12-11T20:01:05.743Z,3.50
2022-12-11T20:03:33.529Z,6.40
2022-12-11T20:06:08.351Z,6.40
2022-12-11T20:08:44.654Z,4.65
2022-12-11T20:11:18.342Z,7.78
2022-12-11T20:13:46.773Z,8.90
2022-12-11T20:16:14.750Z,30.20
2022-12-11T20:18:41.893Z,14.48
2022-12-11T20:21:12.300Z,3.65
2022-12-11T20:23:39.402Z,2.95
2022-12-11T20:26:08.519Z,5.60
2022-12-11T20:28:35.741Z,2.60
2022-12-11T20:31:16.552Z,3.28
2022-12-11T20:33:48.716Z,2.70
2022-12-11T20:36:19.933Z,2.25
2022-12-11T20:38:46.777Z,2.80
2022-12-11T20:41:16.145Z,4.40
2022-12-11T20:43:43.427Z,4.15
2022-12-11T20:46:12.500Z,3.88
2022-12-11T20:48:40.833Z,3.40
2022-12-11T20:51:09.907Z,3.53
2022-12-11T20:53:37.792Z,3.47
2022-12-11T20:56:17.196Z,3.80
2022-12-11T20:58:45.128Z,3.83
2022-12-11T21:01:16.425Z,2.70
2022-12-11T21:03:43.580Z,2.70
2022-12-11T21:06:30.775Z,2.30
2022-12-11T21:08:59.269Z,3.00
2022-12-11T21:11:26.212Z,2.80
2022-12-11T21:13:53.452Z,2.78
2022-12-11T21:16:20.537Z,2.30
2022-12-11T21:18:48.312Z,3.00
2022-12-11T21:21:16.454Z,3.10
2022-12-11T21:23:44.061Z,3.38
2022-12-11T21:26:10.993Z,7.30
2022-12-11T21:28:37.785Z,6.05
2022-12-11T21:31:11.731Z,4.27
2022-12-11T21:33:39.013Z,5.65
2022-12-11T21:36:07.154Z,6.30
2022-12-11T21:38:34.384Z,4.88
2022-12-11T21:41:27.705Z,4.07
2022-12-11T21:45:25.532Z,5.27
2022-12-11T21:46:46.258Z,4.95
2022-12-11T21:49:13.061Z,2.80
2022-12-11T21:51:46.805Z,2.20
2022-12-11T21:54:16.629Z,2.40
2022-12-11T21:56:44.788Z,2.80
2022-12-11T21:59:11.735Z,3.38
2022-12-11T22:01:42.194Z,2.70
2022-12-11T22:04:10.553Z,7.22
2022-12-11T22:06:37.584Z,6.05
2022-12-11T22:09:05.683Z,7.63
2022-12-11T22:11:34.545Z,2.75
2022-12-11T22:14:02.121Z,2.40
2022-12-11T22:16:29.047Z,2.60
2022-12-11T22:18:56.160Z,2.95
2022-12-11T22:21:22.943Z,3.63
2022-12-11T22:23:49.801Z,2.53
2022-12-11T22:26:20.109Z,3.65
2022-12-11T22:28:47.006Z,2.58
2022-12-11T22:31:16.953Z,2.00
2022-12-11T22:33:44.155Z,2.73
2022-12-11T22:36:11.781Z,2.80
2022-12-11T22:38:41.061Z,2.20
2022-12-11T22:41:16.328Z,1.80
2022-12-11T22:43:47.312Z,1.88
2022-12-11T22:46:19.004Z,2.10
2022-12-11T22:48:45.845Z,2.25
2022-12-11T22:51:13.165Z,2.50
2022-12-11T22:53:40.063Z,2.55
2022-12-11T22:56:08.417Z,2.30
2022-12-11T22:58:35.743Z,2.10
2022-12-11T23:01:13.247Z,1.98
2022-12-11T23:03:40.566Z,2.17
2022-12-11T23:06:11.237Z,2.15
2022-12-11T23:08:39.236Z,2.40
2022-12-11T23:11:18.516Z,1.97
2022-12-11T23:13:45.397Z,1.73
2022-12-11T23:16:13.155Z,2.10
2022-12-11T23:18:40.442Z,1.98
2022-12-11T23:21:08.088Z,2.22
2022-12-11T23:23:35.143Z,2.00
2022-12-11T23:26:04.840Z,2.08
2022-12-11T23:28:32.092Z,2.10
2022-12-11T23:30:58.876Z,2.05
2022-12-11T23:33:26.123Z,2.45
2022-12-11T23:35:52.819Z,1.80
2022-12-11T23:38:20.322Z,1.92
2022-12-11T23:40:47.166Z,1.67
2022-12-11T23:43:13.864Z,1.60
2022-12-11T23:45:44.403Z,1.90
2022-12-11T23:48:12.710Z,2.30
2022-12-11T23:50:41.147Z,2.00
2022-12-11T23:53:07.879Z,2.17
2022-12-11T23:55:34.787Z,2.30
2022-12-11T23:58:01.535Z,2.17
